Чертовицкое

Карта отелей и гостиниц, располагающихся рядом с аэропортом Чертовицкое :

Чертовицкое
Воронеж
Воронежская область 51° 48' 54.1188" N, 39° 13' 46.8012" E
Код аэродрома ИКАО
UUOO
Код аэродрома RU
УУОО
Координаты
N51.81503° E039.22967°
Превышение над уровнем моря
157
Основная полоса
12/30
Курс магнитный
121,5/301,5
Длина основной ВПП
2304
Ширина основной ВПП
49
Покрытие основной ВПП
Твёрдое (бетон)
Освещение ВПП
Постоянное
Тип: 
Аэродром
Класс аэродрома: 
Международный
Принадлежность: 
ГА
Статус: 
Действующий
Страна: 
Россия
Регион: 
Воронежская область
Город: 
Воронеж
Дополнительная информация: 
Воронежская область, Россия. Нкр.=(500)м.
Погода: 

Авиационная погода в Воронеже

Регион: 
Погода METAR: 
UUOO 221800Z 13003MPS 9999 OVC014 M04/M06 Q1013 R12/450540 NOSIG RMK QFE745
Время наблюдения
2022-01-22T18:00:00Z
Температура C
-4.0
Точка росы
-6.0
Направление ветра
130
Скорость ветра (узлы)
6
Метео видимость
6.21
Облачность
OVC
Нижняя граница облачности (футы)
1400
Явления погоды
Условия полета
MVFR
Аэропорт подробнее: 
OVC – сплошная облачность;

Найти трансфер

С помощью этой формы Вы можете найти трансфер из аэропорта Чертовицкое в город, аэропорт или вокзал:

Погода в аэропортах:

Авиационная погода в Ульяновске

Регион: 
Погода METAR: 
UWLW 221800Z 14006MPS 1600 R20/2000 SN BLSN OVC019 M05/M06 Q1020 R20/491540 TEMPO 15010MPS 0500 +SN BLSN VV003 RMK QFE760
Время наблюдения
2022-01-22T18:00:00Z
Температура C
-5.0
Точка росы
-6.0
Направление ветра
140
Скорость ветра (узлы)
12
Метео видимость
0.99
Облачность
OVC
Нижняя граница облачности (футы)
1900
Явления погоды
BLSN SN
Условия полета
LIFR
Аэропорт подробнее: 
OVC – сплошная облачность;
BLSN – метель низовая или общая;

Авиационная погода в Минске

Регион: 
Погода METAR: 
UMMS 221743Z 35008G12MPS 2800 -SHSN BLSN BKN015CB BKN041 M04/M05 Q1012 NOSIG
Время наблюдения
2022-01-22T17:43:00Z
Температура C
-4.0
Точка росы
-5.0
Направление ветра
350
Скорость ветра (узлы)
16
Метео видимость
1.74
Облачность
BKN
BKN
Нижняя граница облачности (футы)
1500
4100
Явления погоды
-SHSN BLSN
Условия полета
IFR
Аэропорт подробнее: 
BKN – значительная (рассеянная, разорванная) облачность;
-SHSN - слабый ливневой снег, BLSN – метель низовая или общая;

Авиационная погода в Кокшетау

Регион: 
Погода METAR: 
UACK 221200Z 03001MPS 6000 -SG BKN002 M16/M18 Q1028 TEMPO BKN003 RMK QBB070 QFE747/0997
Время наблюдения
2022-01-22T12:00:00Z
Температура C
-16.0
Точка росы
-18.0
Направление ветра
30
Скорость ветра (узлы)
2
Метео видимость
3.73
Облачность
BKN
Нижняя граница облачности (футы)
200
Явления погоды
-SG
Условия полета
LIFR
Аэропорт подробнее: 
BKN – значительная (рассеянная, разорванная) облачность;
SG - снежные зёрна;

Авиационная погода в Угольном

Регион: 
Погода METAR: 
UHMA 221800Z 36003MPS 4100 -SN FEW023 SCT042 M21/M23 Q0990 R01/////// NOSIG RMK TDZ R01/36003G04MPS END R01/33001MPS QFE738/0985
Время наблюдения
2022-01-22T18:00:00Z
Температура C
-21.0
Точка росы
-23.0
Направление ветра
360
Скорость ветра (узлы)
6
Метео видимость
2.55
Облачность
FEW
SCT
Нижняя граница облачности (футы)
2300
4200
Явления погоды
-SN
Условия полета
IFR
Аэропорт подробнее: 
FEW – незначительная облачность; SCT – разбросанная отдельная облачность;
-SN – слабый снег;